sensor_id;sensor_type;location;lat;lon;timestamp;temperature;humidity
13600;DHT22;6871;51.34740610;4.31323160;2023-02-14T00:02:05;15.70;69.10
13600;DHT22;6871;51.34740610;4.31323160;2023-02-14T00:04:35;15.70;69.00
13600;DHT22;6871;51.34740610;4.31323160;2023-02-14T00:07:05;15.70;69.00
13600;DHT22;6871;51.34740610;4.31323160;2023-02-14T00:09:34;15.70;69.90
13600;DHT22;6871;51.34740610;4.31323160;2023-02-14T00:12:04;15.70;69.00
13600;DHT22;6871;51.34740610;4.31323160;2023-02-14T00:14:34;15.70;69.00
13600;DHT22;6871;51.34740610;4.31323160;2023-02-14T00:17:21;15.70;68.90
13600;DHT22;6871;51.34740610;4.31323160;2023-02-14T00:19:51;15.70;68.90
13600;DHT22;6871;51.34740610;4.31323160;2023-02-14T00:22:21;15.70;68.90
13600;DHT22;6871;51.34740610;4.31323160;2023-02-14T00:24:51;15.70;68.80
13600;DHT22;6871;51.34740610;4.31323160;2023-02-14T00:27:20;15.70;68.80
13600;DHT22;6871;51.34740610;4.31323160;2023-02-14T00:29:49;15.70;68.90
13600;DHT22;6871;51.34740610;4.31323160;2023-02-14T00:32:19;15.70;68.80
13600;DHT22;6871;51.34740610;4.31323160;2023-02-14T00:34:48;15.70;68.80
13600;DHT22;6871;51.34740610;4.31323160;2023-02-14T00:37:17;15.70;68.70
13600;DHT22;6871;51.34740610;4.31323160;2023-02-14T00:39:46;15.70;68.70
13600;DHT22;6871;51.34740610;4.31323160;2023-02-14T00:42:16;15.70;68.70
13600;DHT22;6871;51.34740610;4.31323160;2023-02-14T00:44:45;15.70;68.70
13600;DHT22;6871;51.34740610;4.31323160;2023-02-14T00:47:14;15.70;68.70
13600;DHT22;6871;51.34740610;4.31323160;2023-02-14T00:49:43;15.70;68.60
13600;DHT22;6871;51.34740610;4.31323160;2023-02-14T00:52:14;15.70;68.60
13600;DHT22;6871;51.34740610;4.31323160;2023-02-14T00:54:43;15.70;68.60
13600;DHT22;6871;51.34740610;4.31323160;2023-02-14T00:57:12;15.70;68.60
13600;DHT22;6871;51.34740610;4.31323160;2023-02-14T00:59:41;15.70;68.60
13600;DHT22;6871;51.34740610;4.31323160;2023-02-14T01:02:11;15.70;68.40
13600;DHT22;6871;51.34740610;4.31323160;2023-02-14T01:04:41;15.70;68.40
13600;DHT22;6871;51.34740610;4.31323160;2023-02-14T01:07:10;15.70;68.40
13600;DHT22;6871;51.34740610;4.31323160;2023-02-14T01:09:39;15.70;68.40
13600;DHT22;6871;51.34740610;4.31323160;2023-02-14T01:12:09;15.70;68.40
13600;DHT22;6871;51.34740610;4.31323160;2023-02-14T01:14:38;15.70;68.40
13600;DHT22;6871;51.34740610;4.31323160;2023-02-14T01:17:07;15.60;68.40
13600;DHT22;6871;51.34740610;4.31323160;2023-02-14T01:19:36;15.60;68.30
13600;DHT22;6871;51.34740610;4.31323160;2023-02-14T01:22:07;15.60;68.30
13600;DHT22;6871;51.34740610;4.31323160;2023-02-14T01:24:36;15.60;68.30
13600;DHT22;6871;51.34740610;4.31323160;2023-02-14T01:27:06;15.60;68.30
13600;DHT22;6871;51.34740610;4.31323160;2023-02-14T01:29:35;15.60;68.30
13600;DHT22;6871;51.34740610;4.31323160;2023-02-14T01:32:05;15.60;68.30
13600;DHT22;6871;51.34740610;4.31323160;2023-02-14T01:34:34;15.60;68.30
13600;DHT22;6871;51.34740610;4.31323160;2023-02-14T01:37:03;15.60;68.40
13600;DHT22;6871;51.34740610;4.31323160;2023-02-14T01:39:32;15.60;69.20
13600;DHT22;6871;51.34740610;4.31323160;2023-02-14T01:42:02;15.60;68.40
13600;DHT22;6871;51.34740610;4.31323160;2023-02-14T01:45:12;15.60;68.30
13600;DHT22;6871;51.34740610;4.31323160;2023-02-14T01:47:41;15.60;68.30
13600;DHT22;6871;51.34740610;4.31323160;2023-02-14T01:50:14;15.60;68.30
13600;DHT22;6871;51.34740610;4.31323160;2023-02-14T01:52:46;15.60;68.40
13600;DHT22;6871;51.34740610;4.31323160;2023-02-14T01:55:18;15.60;68.30
13600;DHT22;6871;51.34740610;4.31323160;2023-02-14T01:57:51;15.60;68.30
13600;DHT22;6871;51.34740610;4.31323160;2023-02-14T02:00:21;15.60;68.20
13600;DHT22;6871;51.34740610;4.31323160;2023-02-14T02:03:09;15.60;68.30
13600;DHT22;6871;51.34740610;4.31323160;2023-02-14T02:05:42;15.50;68.30
13600;DHT22;6871;51.34740610;4.31323160;2023-02-14T02:08:12;15.50;68.20
13600;DHT22;6871;51.34740610;4.31323160;2023-02-14T02:10:42;15.60;68.20
13600;DHT22;6871;51.34740610;4.31323160;2023-02-14T02:13:17;15.60;68.20
13600;DHT22;6871;51.34740610;4.31323160;2023-02-14T02:15:52;15.60;68.20
13600;DHT22;6871;51.34740610;4.31323160;2023-02-14T02:18:25;15.50;68.10
13600;DHT22;6871;51.34740610;4.31323160;2023-02-14T02:21:25;15.60;68.00
13600;DHT22;6871;51.34740610;4.31323160;2023-02-14T02:24:02;15.60;68.00
13600;DHT22;6871;51.34740610;4.31323160;2023-02-14T02:27:15;15.50;67.90
13600;DHT22;6871;51.34740610;4.31323160;2023-02-14T02:36:06;15.50;68.00
13600;DHT22;6871;51.34740610;4.31323160;2023-02-14T02:38:44;15.50;68.00
13600;DHT22;6871;51.34740610;4.31323160;2023-02-14T02:41:20;15.40;67.90
13600;DHT22;6871;51.34740610;4.31323160;2023-02-14T02:43:52;15.50;68.00
13600;DHT22;6871;51.34740610;4.31323160;2023-02-14T02:46:31;15.50;67.80
13600;DHT22;6871;51.34740610;4.31323160;2023-02-14T02:49:28;15.50;67.80
13600;DHT22;6871;51.34740610;4.31323160;2023-02-14T02:52:18;15.50;67.80
13600;DHT22;6871;51.34740610;4.31323160;2023-02-14T02:55:21;15.40;67.70
13600;DHT22;6871;51.34740610;4.31323160;2023-02-14T02:57:51;15.40;67.70
13600;DHT22;6871;51.34740610;4.31323160;2023-02-14T03:00:24;15.50;67.80
13600;DHT22;6871;51.34740610;4.31323160;2023-02-14T03:02:55;15.50;67.80
13600;DHT22;6871;51.34740610;4.31323160;2023-02-14T03:05:43;15.50;67.80
13600;DHT22;6871;51.34740610;4.31323160;2023-02-14T03:08:13;15.50;67.70
13600;DHT22;6871;51.34740610;4.31323160;2023-02-14T03:10:42;15.50;67.60
13600;DHT22;6871;51.34740610;4.31323160;2023-02-14T03:13:58;15.50;67.60
13600;DHT22;6871;51.34740610;4.31323160;2023-02-14T03:16:34;15.50;67.50
13600;DHT22;6871;51.34740610;4.31323160;2023-02-14T03:22:39;15.50;67.50
13600;DHT22;6871;51.34740610;4.31323160;2023-02-14T03:25:13;15.50;67.50
13600;DHT22;6871;51.34740610;4.31323160;2023-02-14T03:27:44;15.40;67.50
13600;DHT22;6871;51.34740610;4.31323160;2023-02-14T03:30:19;15.40;67.50
13600;DHT22;6871;51.34740610;4.31323160;2023-02-14T03:32:50;15.40;67.50
13600;DHT22;6871;51.34740610;4.31323160;2023-02-14T03:35:22;15.50;67.40
13600;DHT22;6871;51.34740610;4.31323160;2023-02-14T03:37:54;15.50;67.40
13600;DHT22;6871;51.34740610;4.31323160;2023-02-14T03:40:27;15.50;67.40
13600;DHT22;6871;51.34740610;4.31323160;2023-02-14T03:43:00;15.40;67.30
13600;DHT22;6871;51.34740610;4.31323160;2023-02-14T03:45:32;15.40;66.80
13600;DHT22;6871;51.34740610;4.31323160;2023-02-14T03:48:05;15.50;67.30
13600;DHT22;6871;51.34740610;4.31323160;2023-02-14T03:50:36;15.40;67.10
13600;DHT22;6871;51.34740610;4.31323160;2023-02-14T03:53:09;15.50;67.10
13600;DHT22;6871;51.34740610;4.31323160;2023-02-14T03:55:42;15.50;67.20
13600;DHT22;6871;51.34740610;4.31323160;2023-02-14T03:58:13;15.40;67.10
13600;DHT22;6871;51.34740610;4.31323160;2023-02-14T04:00:44;15.40;67.00
13600;DHT22;6871;51.34740610;4.31323160;2023-02-14T04:03:15;15.40;67.00
13600;DHT22;6871;51.34740610;4.31323160;2023-02-14T04:05:46;15.50;67.00
13600;DHT22;6871;51.34740610;4.31323160;2023-02-14T04:08:22;15.40;67.00
13600;DHT22;6871;51.34740610;4.31323160;2023-02-14T04:10:53;15.50;67.00
13600;DHT22;6871;51.34740610;4.31323160;2023-02-14T04:13:23;15.40;66.90
13600;DHT22;6871;51.34740610;4.31323160;2023-02-14T04:15:53;15.40;67.00
13600;DHT22;6871;51.34740610;4.31323160;2023-02-14T04:18:22;15.40;66.90
13600;DHT22;6871;51.34740610;4.31323160;2023-02-14T04:21:10;15.40;66.90
13600;DHT22;6871;51.34740610;4.31323160;2023-02-14T04:23:39;15.40;66.90
13600;DHT22;6871;51.34740610;4.31323160;2023-02-14T04:26:09;15.40;66.90
13600;DHT22;6871;51.34740610;4.31323160;2023-02-14T04:28:38;15.40;66.90
13600;DHT22;6871;51.34740610;4.31323160;2023-02-14T04:31:07;15.40;66.90
13600;DHT22;6871;51.34740610;4.31323160;2023-02-14T04:33:39;15.40;66.80
13600;DHT22;6871;51.34740610;4.31323160;2023-02-14T04:36:08;15.40;66.70
13600;DHT22;6871;51.34740610;4.31323160;2023-02-14T04:38:38;15.40;66.70
13600;DHT22;6871;51.34740610;4.31323160;2023-02-14T04:41:07;15.40;66.70
13600;DHT22;6871;51.34740610;4.31323160;2023-02-14T04:43:36;15.40;66.70
13600;DHT22;6871;51.34740610;4.31323160;2023-02-14T04:46:06;15.40;66.70
13600;DHT22;6871;51.34740610;4.31323160;2023-02-14T04:48:35;15.40;66.60
13600;DHT22;6871;51.34740610;4.31323160;2023-02-14T04:51:05;15.40;66.60
13600;DHT22;6871;51.34740610;4.31323160;2023-02-14T04:53:34;15.40;66.70
13600;DHT22;6871;51.34740610;4.31323160;2023-02-14T04:56:06;15.40;66.70
13600;DHT22;6871;51.34740610;4.31323160;2023-02-14T04:58:36;15.40;66.60
13600;DHT22;6871;51.34740610;4.31323160;2023-02-14T05:01:06;15.40;66.60
13600;DHT22;6871;51.34740610;4.31323160;2023-02-14T05:03:35;15.40;66.60
13600;DHT22;6871;51.34740610;4.31323160;2023-02-14T05:06:05;15.40;66.70
13600;DHT22;6871;51.34740610;4.31323160;2023-02-14T05:08:34;15.40;66.60
13600;DHT22;6871;51.34740610;4.31323160;2023-02-14T05:11:04;15.40;66.50
13600;DHT22;6871;51.34740610;4.31323160;2023-02-14T05:13:33;15.40;66.50
13600;DHT22;6871;51.34740610;4.31323160;2023-02-14T05:16:03;15.40;66.50
13600;DHT22;6871;51.34740610;4.31323160;2023-02-14T05:18:33;15.40;66.50
13600;DHT22;6871;51.34740610;4.31323160;2023-02-14T05:21:02;15.40;66.50
13600;DHT22;6871;51.34740610;4.31323160;2023-02-14T05:23:31;15.40;66.40
13600;DHT22;6871;51.34740610;4.31323160;2023-02-14T05:26:02;15.40;66.40
13600;DHT22;6871;51.34740610;4.31323160;2023-02-14T05:28:32;15.40;66.40
13600;DHT22;6871;51.34740610;4.31323160;2023-02-14T05:31:01;15.40;66.40
13600;DHT22;6871;51.34740610;4.31323160;2023-02-14T05:33:30;15.40;66.40
13600;DHT22;6871;51.34740610;4.31323160;2023-02-14T05:36:00;15.40;66.50
13600;DHT22;6871;51.34740610;4.31323160;2023-02-14T05:38:30;15.40;66.40
13600;DHT22;6871;51.34740610;4.31323160;2023-02-14T05:41:02;15.40;66.40
13600;DHT22;6871;51.34740610;4.31323160;2023-02-14T05:43:32;15.40;66.30
13600;DHT22;6871;51.34740610;4.31323160;2023-02-14T05:46:01;15.30;66.40
13600;DHT22;6871;51.34740610;4.31323160;2023-02-14T05:48:31;15.40;66.40
13600;DHT22;6871;51.34740610;4.31323160;2023-02-14T05:51:04;15.30;66.40
13600;DHT22;6871;51.34740610;4.31323160;2023-02-14T05:53:34;15.30;66.40
13600;DHT22;6871;51.34740610;4.31323160;2023-02-14T05:56:04;15.30;66.40
13600;DHT22;6871;51.34740610;4.31323160;2023-02-14T05:58:34;15.30;66.40
13600;DHT22;6871;51.34740610;4.31323160;2023-02-14T06:01:05;15.40;66.50
13600;DHT22;6871;51.34740610;4.31323160;2023-02-14T06:03:34;15.40;66.40
13600;DHT22;6871;51.34740610;4.31323160;2023-02-14T06:06:04;15.30;66.30
13600;DHT22;6871;51.34740610;4.31323160;2023-02-14T06:08:33;15.30;66.40
13600;DHT22;6871;51.34740610;4.31323160;2023-02-14T06:11:03;15.30;66.30
13600;DHT22;6871;51.34740610;4.31323160;2023-02-14T06:13:32;15.40;66.30
13600;DHT22;6871;51.34740610;4.31323160;2023-02-14T06:16:03;15.30;66.40
13600;DHT22;6871;51.34740610;4.31323160;2023-02-14T06:18:33;15.30;66.30
13600;DHT22;6871;51.34740610;4.31323160;2023-02-14T06:21:03;15.30;66.30
13600;DHT22;6871;51.34740610;4.31323160;2023-02-14T06:23:33;15.30;66.40
13600;DHT22;6871;51.34740610;4.31323160;2023-02-14T06:26:02;15.30;66.40
13600;DHT22;6871;51.34740610;4.31323160;2023-02-14T06:28:31;15.30;66.40
13600;DHT22;6871;51.34740610;4.31323160;2023-02-14T06:31:00;15.30;66.30
13600;DHT22;6871;51.34740610;4.31323160;2023-02-14T06:33:30;15.30;66.40
13600;DHT22;6871;51.34740610;4.31323160;2023-02-14T06:35:59;15.30;66.30
13600;DHT22;6871;51.34740610;4.31323160;2023-02-14T06:38:28;15.30;66.40
13600;DHT22;6871;51.34740610;4.31323160;2023-02-14T06:41:03;15.30;66.50
13600;DHT22;6871;51.34740610;4.31323160;2023-02-14T06:43:33;15.30;66.30
13600;DHT22;6871;51.34740610;4.31323160;2023-02-14T06:46:04;15.30;66.30
13600;DHT22;6871;51.34740610;4.31323160;2023-02-14T06:48:33;15.30;66.30
13600;DHT22;6871;51.34740610;4.31323160;2023-02-14T06:51:02;15.30;66.50
13600;DHT22;6871;51.34740610;4.31323160;2023-02-14T06:53:32;15.30;67.00
13600;DHT22;6871;51.34740610;4.31323160;2023-02-14T06:56:02;15.30;66.80
13600;DHT22;6871;51.34740610;4.31323160;2023-02-14T06:58:31;15.30;66.60
13600;DHT22;6871;51.34740610;4.31323160;2023-02-14T07:01:01;15.30;66.60
13600;DHT22;6871;51.34740610;4.31323160;2023-02-14T07:03:30;15.30;66.50
13600;DHT22;6871;51.34740610;4.31323160;2023-02-14T07:06:00;15.30;66.40
13600;DHT22;6871;51.34740610;4.31323160;2023-02-14T07:08:29;15.30;66.40
13600;DHT22;6871;51.34740610;4.31323160;2023-02-14T07:10:58;15.30;66.40
13600;DHT22;6871;51.34740610;4.31323160;2023-02-14T07:13:28;15.30;66.30
13600;DHT22;6871;51.34740610;4.31323160;2023-02-14T07:15:57;15.30;66.50
13600;DHT22;6871;51.34740610;4.31323160;2023-02-14T07:18:26;15.30;66.70
13600;DHT22;6871;51.34740610;4.31323160;2023-02-14T07:20:56;15.30;66.70
13600;DHT22;6871;51.34740610;4.31323160;2023-02-14T07:23:25;15.30;66.40
13600;DHT22;6871;51.34740610;4.31323160;2023-02-14T07:25:55;15.30;66.30
13600;DHT22;6871;51.34740610;4.31323160;2023-02-14T07:28:24;15.30;66.20
13600;DHT22;6871;51.34740610;4.31323160;2023-02-14T07:30:54;15.30;66.20
13600;DHT22;6871;51.34740610;4.31323160;2023-02-14T07:33:23;15.30;66.20
13600;DHT22;6871;51.34740610;4.31323160;2023-02-14T07:35:53;15.30;66.20
13600;DHT22;6871;51.34740610;4.31323160;2023-02-14T07:38:22;15.30;66.20
13600;DHT22;6871;51.34740610;4.31323160;2023-02-14T07:40:54;15.30;66.20
13600;DHT22;6871;51.34740610;4.31323160;2023-02-14T07:43:24;15.30;66.20
13600;DHT22;6871;51.34740610;4.31323160;2023-02-14T07:45:54;15.30;66.10
13600;DHT22;6871;51.34740610;4.31323160;2023-02-14T07:48:23;15.30;66.10
13600;DHT22;6871;51.34740610;4.31323160;2023-02-14T07:50:52;15.30;66.00
13600;DHT22;6871;51.34740610;4.31323160;2023-02-14T07:53:24;15.30;66.00
13600;DHT22;6871;51.34740610;4.31323160;2023-02-14T07:55:53;15.40;66.00
13600;DHT22;6871;51.34740610;4.31323160;2023-02-14T07:58:23;15.40;66.00
13600;DHT22;6871;51.34740610;4.31323160;2023-02-14T08:00:52;15.40;66.00
13600;DHT22;6871;51.34740610;4.31323160;2023-02-14T08:03:22;15.40;66.50
13600;DHT22;6871;51.34740610;4.31323160;2023-02-14T08:05:52;15.40;66.90
13600;DHT22;6871;51.34740610;4.31323160;2023-02-14T08:08:26;15.40;66.60
13600;DHT22;6871;51.34740610;4.31323160;2023-02-14T08:10:55;15.40;66.30
13600;DHT22;6871;51.34740610;4.31323160;2023-02-14T08:13:25;15.50;66.30
13600;DHT22;6871;51.34740610;4.31323160;2023-02-14T08:15:54;15.50;66.20
13600;DHT22;6871;51.34740610;4.31323160;2023-02-14T08:18:35;15.50;66.30
13600;DHT22;6871;51.34740610;4.31323160;2023-02-14T08:21:07;15.50;66.10
13600;DHT22;6871;51.34740610;4.31323160;2023-02-14T08:23:38;15.60;66.00
13600;DHT22;6871;51.34740610;4.31323160;2023-02-14T08:26:07;15.60;65.80
13600;DHT22;6871;51.34740610;4.31323160;2023-02-14T08:28:37;15.70;65.80
13600;DHT22;6871;51.34740610;4.31323160;2023-02-14T08:31:07;15.70;66.10
13600;DHT22;6871;51.34740610;4.31323160;2023-02-14T08:33:36;15.70;66.30
13600;DHT22;6871;51.34740610;4.31323160;2023-02-14T08:36:06;15.60;66.00
13600;DHT22;6871;51.34740610;4.31323160;2023-02-14T08:38:36;15.60;65.80
13600;DHT22;6871;51.34740610;4.31323160;2023-02-14T08:41:05;15.70;65.80
13600;DHT22;6871;51.34740610;4.31323160;2023-02-14T08:43:34;15.70;65.50
13600;DHT22;6871;51.34740610;4.31323160;2023-02-14T08:46:04;15.70;65.50
13600;DHT22;6871;51.34740610;4.31323160;2023-02-14T08:48:34;15.70;65.50
13600;DHT22;6871;51.34740610;4.31323160;2023-02-14T08:51:06;15.80;65.60
13600;DHT22;6871;51.34740610;4.31323160;2023-02-14T08:53:35;15.80;65.80
13600;DHT22;6871;51.34740610;4.31323160;2023-02-14T08:56:06;15.70;66.10
13600;DHT22;6871;51.34740610;4.31323160;2023-02-14T08:58:36;15.70;66.00
13600;DHT22;6871;51.34740610;4.31323160;2023-02-14T09:01:09;15.80;66.20
13600;DHT22;6871;51.34740610;4.31323160;2023-02-14T09:03:39;15.80;66.10
13600;DHT22;6871;51.34740610;4.31323160;2023-02-14T09:06:10;15.70;64.10
13600;DHT22;6871;51.34740610;4.31323160;2023-02-14T09:08:41;15.50;65.80
13600;DHT22;6871;51.34740610;4.31323160;2023-02-14T09:11:12;15.50;66.20
13600;DHT22;6871;51.34740610;4.31323160;2023-02-14T09:13:43;15.50;66.40
13600;DHT22;6871;51.34740610;4.31323160;2023-02-14T09:16:14;15.60;66.50
13600;DHT22;6871;51.34740610;4.31323160;2023-02-14T09:18:44;15.70;66.20
13600;DHT22;6871;51.34740610;4.31323160;2023-02-14T09:21:16;15.70;66.00
13600;DHT22;6871;51.34740610;4.31323160;2023-02-14T09:23:45;15.80;66.00
13600;DHT22;6871;51.34740610;4.31323160;2023-02-14T09:26:16;15.90;66.00
13600;DHT22;6871;51.34740610;4.31323160;2023-02-14T09:28:46;15.90;66.00
13600;DHT22;6871;51.34740610;4.31323160;2023-02-14T09:31:17;16.00;66.00
13600;DHT22;6871;51.34740610;4.31323160;2023-02-14T09:33:48;16.00;65.90
13600;DHT22;6871;51.34740610;4.31323160;2023-02-14T09:36:17;16.00;66.00
13600;DHT22;6871;51.34740610;4.31323160;2023-02-14T09:39:04;16.10;65.80
13600;DHT22;6871;51.34740610;4.31323160;2023-02-14T09:44:30;16.20;66.40
13600;DHT22;6871;51.34740610;4.31323160;2023-02-14T09:47:05;16.20;65.60
13600;DHT22;6871;51.34740610;4.31323160;2023-02-14T09:49:37;16.30;65.60
13600;DHT22;6871;51.34740610;4.31323160;2023-02-14T09:52:09;16.30;65.50
13600;DHT22;6871;51.34740610;4.31323160;2023-02-14T09:54:40;16.30;65.30
13600;DHT22;6871;51.34740610;4.31323160;2023-02-14T09:57:15;16.40;66.30
13600;DHT22;6871;51.34740610;4.31323160;2023-02-14T09:59:47;16.40;65.30
13600;DHT22;6871;51.34740610;4.31323160;2023-02-14T10:02:36;16.50;65.30
13600;DHT22;6871;51.34740610;4.31323160;2023-02-14T10:05:02;16.50;65.30
13600;DHT22;6871;51.34740610;4.31323160;2023-02-14T10:07:38;16.50;65.00
13600;DHT22;6871;51.34740610;4.31323160;2023-02-14T10:10:10;16.60;65.00
13600;DHT22;6871;51.34740610;4.31323160;2023-02-14T10:12:43;16.70;65.00
13600;DHT22;6871;51.34740610;4.31323160;2023-02-14T10:15:16;16.70;65.20
13600;DHT22;6871;51.34740610;4.31323160;2023-02-14T10:17:48;16.80;64.90
13600;DHT22;6871;51.34740610;4.31323160;2023-02-14T10:20:22;16.80;64.70
13600;DHT22;6871;51.34740610;4.31323160;2023-02-14T10:22:58;16.90;64.60
13600;DHT22;6871;51.34740610;4.31323160;2023-02-14T10:25:29;16.90;64.60
13600;DHT22;6871;51.34740610;4.31323160;2023-02-14T10:28:01;17.00;64.80
13600;DHT22;6871;51.34740610;4.31323160;2023-02-14T10:30:36;17.10;65.60
13600;DHT22;6871;51.34740610;4.31323160;2023-02-14T10:33:10;17.10;66.30
13600;DHT22;6871;51.34740610;4.31323160;2023-02-14T10:35:45;17.30;66.10
13600;DHT22;6871;51.34740610;4.31323160;2023-02-14T10:38:21;17.30;65.50
13600;DHT22;6871;51.34740610;4.31323160;2023-02-14T10:41:02;17.30;65.20
13600;DHT22;6871;51.34740610;4.31323160;2023-02-14T10:43:35;17.40;65.00
13600;DHT22;6871;51.34740610;4.31323160;2023-02-14T10:46:09;17.30;65.10
13600;DHT22;6871;51.34740610;4.31323160;2023-02-14T10:48:44;17.40;65.10
13600;DHT22;6871;51.34740610;4.31323160;2023-02-14T10:51:15;17.40;65.50
13600;DHT22;6871;51.34740610;4.31323160;2023-02-14T10:53:48;17.40;65.20
13600;DHT22;6871;51.34740610;4.31323160;2023-02-14T10:56:20;17.30;65.00
13600;DHT22;6871;51.34740610;4.31323160;2023-02-14T10:58:53;17.40;65.40
13600;DHT22;6871;51.34740610;4.31323160;2023-02-14T11:01:24;17.40;65.10
13600;DHT22;6871;51.34740610;4.31323160;2023-02-14T11:03:56;17.40;65.00
13600;DHT22;6871;51.34740610;4.31323160;2023-02-14T11:06:28;17.40;64.90
13600;DHT22;6871;51.34740610;4.31323160;2023-02-14T11:08:58;17.40;64.90
13600;DHT22;6871;51.34740610;4.31323160;2023-02-14T11:11:29;17.50;64.90
13600;DHT22;6871;51.34740610;4.31323160;2023-02-14T11:13:59;17.50;66.10
13600;DHT22;6871;51.34740610;4.31323160;2023-02-14T11:16:32;17.40;65.90
13600;DHT22;6871;51.34740610;4.31323160;2023-02-14T11:19:23;17.50;65.60
13600;DHT22;6871;51.34740610;4.31323160;2023-02-14T11:21:54;17.50;65.50
13600;DHT22;6871;51.34740610;4.31323160;2023-02-14T11:24:29;17.50;65.40
13600;DHT22;6871;51.34740610;4.31323160;2023-02-14T11:27:00;17.50;65.60
13600;DHT22;6871;51.34740610;4.31323160;2023-02-14T11:29:34;17.50;65.70
13600;DHT22;6871;51.34740610;4.31323160;2023-02-14T11:32:11;17.50;65.70
13600;DHT22;6871;51.34740610;4.31323160;2023-02-14T11:34:44;17.50;65.80
13600;DHT22;6871;51.34740610;4.31323160;2023-02-14T11:37:26;17.50;65.80
13600;DHT22;6871;51.34740610;4.31323160;2023-02-14T11:39:57;17.40;65.90
13600;DHT22;6871;51.34740610;4.31323160;2023-02-14T11:42:37;17.40;66.00
13600;DHT22;6871;51.34740610;4.31323160;2023-02-14T11:45:26;17.40;66.00
13600;DHT22;6871;51.34740610;4.31323160;2023-02-14T11:48:17;17.40;66.10
13600;DHT22;6871;51.34740610;4.31323160;2023-02-14T11:57:42;17.40;66.50
13600;DHT22;6871;51.34740610;4.31323160;2023-02-14T12:00:17;17.30;66.70
13600;DHT22;6871;51.34740610;4.31323160;2023-02-14T12:02:47;17.30;66.80
13600;DHT22;6871;51.34740610;4.31323160;2023-02-14T12:05:20;17.30;66.90
13600;DHT22;6871;51.34740610;4.31323160;2023-02-14T12:07:52;17.30;66.90
13600;DHT22;6871;51.34740610;4.31323160;2023-02-14T12:10:25;17.30;67.10
13600;DHT22;6871;51.34740610;4.31323160;2023-02-14T12:12:58;17.30;67.30
13600;DHT22;6871;51.34740610;4.31323160;2023-02-14T12:15:36;17.20;67.60
13600;DHT22;6871;51.34740610;4.31323160;2023-02-14T12:21:32;17.20;68.90
13600;DHT22;6871;51.34740610;4.31323160;2023-02-14T12:24:08;17.10;68.90
13600;DHT22;6871;51.34740610;4.31323160;2023-02-14T12:26:40;17.10;69.10
13600;DHT22;6871;51.34740610;4.31323160;2023-02-14T12:29:15;17.10;69.10
13600;DHT22;6871;51.34740610;4.31323160;2023-02-14T12:31:47;17.10;69.00
13600;DHT22;6871;51.34740610;4.31323160;2023-02-14T12:34:18;17.00;69.00
13600;DHT22;6871;51.34740610;4.31323160;2023-02-14T12:37:09;17.00;69.10
13600;DHT22;6871;51.34740610;4.31323160;2023-02-14T12:39:44;17.00;69.20
13600;DHT22;6871;51.34740610;4.31323160;2023-02-14T12:42:21;17.00;69.50
13600;DHT22;6871;51.34740610;4.31323160;2023-02-14T12:44:52;17.00;69.80
13600;DHT22;6871;51.34740610;4.31323160;2023-02-14T12:47:25;17.00;69.70
13600;DHT22;6871;51.34740610;4.31323160;2023-02-14T12:53:29;16.90;70.00
13600;DHT22;6871;51.34740610;4.31323160;2023-02-14T12:56:10;16.90;70.00
13600;DHT22;6871;51.34740610;4.31323160;2023-02-14T12:58:50;16.90;70.10
13600;DHT22;6871;51.34740610;4.31323160;2023-02-14T13:01:30;16.90;70.50
13600;DHT22;6871;51.34740610;4.31323160;2023-02-14T13:06:55;16.80;71.20
13600;DHT22;6871;51.34740610;4.31323160;2023-02-14T13:09:32;16.80;71.00
13600;DHT22;6871;51.34740610;4.31323160;2023-02-14T13:12:11;16.80;72.30
13600;DHT22;6871;51.34740610;4.31323160;2023-02-14T13:14:48;16.80;71.60
13600;DHT22;6871;51.34740610;4.31323160;2023-02-14T13:17:21;16.80;71.70
13600;DHT22;6871;51.34740610;4.31323160;2023-02-14T13:19:54;16.80;71.90
13600;DHT22;6871;51.34740610;4.31323160;2023-02-14T13:22:25;16.70;72.10
13600;DHT22;6871;51.34740610;4.31323160;2023-02-14T13:24:58;16.70;72.30
13600;DHT22;6871;51.34740610;4.31323160;2023-02-14T13:27:32;16.70;72.40
13600;DHT22;6871;51.34740610;4.31323160;2023-02-14T13:30:04;16.70;72.50
13600;DHT22;6871;51.34740610;4.31323160;2023-02-14T13:32:37;16.80;72.40
13600;DHT22;6871;51.34740610;4.31323160;2023-02-14T13:35:13;16.90;71.90
13600;DHT22;6871;51.34740610;4.31323160;2023-02-14T13:37:47;17.00;71.40
13600;DHT22;6871;51.34740610;4.31323160;2023-02-14T13:40:19;17.20;71.00
13600;DHT22;6871;51.34740610;4.31323160;2023-02-14T13:42:55;17.30;70.60
13600;DHT22;6871;51.34740610;4.31323160;2023-02-14T13:45:52;17.30;70.20
13600;DHT22;6871;51.34740610;4.31323160;2023-02-14T13:48:23;17.40;69.90
13600;DHT22;6871;51.34740610;4.31323160;2023-02-14T13:50:55;17.50;69.50
13600;DHT22;6871;51.34740610;4.31323160;2023-02-14T13:53:36;17.60;69.40
13600;DHT22;6871;51.34740610;4.31323160;2023-02-14T13:58:55;17.60;69.20
13600;DHT22;6871;51.34740610;4.31323160;2023-02-14T14:01:32;17.60;69.80
13600;DHT22;6871;51.34740610;4.31323160;2023-02-14T14:04:03;17.50;69.80
13600;DHT22;6871;51.34740610;4.31323160;2023-02-14T14:10:00;17.40;70.00
13600;DHT22;6871;51.34740610;4.31323160;2023-02-14T14:12:42;17.30;69.70
13600;DHT22;6871;51.34740610;4.31323160;2023-02-14T14:15:20;17.30;69.80
13600;DHT22;6871;51.34740610;4.31323160;2023-02-14T14:20:54;17.20;70.20
13600;DHT22;6871;51.34740610;4.31323160;2023-02-14T14:23:35;17.10;70.50
13600;DHT22;6871;51.34740610;4.31323160;2023-02-14T14:26:32;17.00;70.90
13600;DHT22;6871;51.34740610;4.31323160;2023-02-14T14:29:01;17.00;71.10
13600;DHT22;6871;51.34740610;4.31323160;2023-02-14T14:31:31;16.90;71.20
13600;DHT22;6871;51.34740610;4.31323160;2023-02-14T14:34:01;16.90;71.40
13600;DHT22;6871;51.34740610;4.31323160;2023-02-14T14:36:30;16.90;71.60
13600;DHT22;6871;51.34740610;4.31323160;2023-02-14T14:38:59;16.80;71.70
13600;DHT22;6871;51.34740610;4.31323160;2023-02-14T14:41:29;16.80;71.90
13600;DHT22;6871;51.34740610;4.31323160;2023-02-14T14:43:59;16.80;71.90